sensor_id;sensor_type;location;lat;lon;timestamp;pressure;altitude;pressure_sealevel;temperature;humidity
10261;BME280;5175;42.606;23.388;2022-08-02T00:00:13;93664.41;;;18.73;71.80
10261;BME280;5175;42.606;23.388;2022-08-02T00:02:41;93655.31;;;18.90;70.80
10261;BME280;5175;42.606;23.388;2022-08-02T00:05:08;93665.41;;;19.02;70.82
10261;BME280;5175;42.606;23.388;2022-08-02T00:07:36;93663.03;;;19.00;70.01
10261;BME280;5175;42.606;23.388;2022-08-02T00:10:05;93661.47;;;18.99;68.86
10261;BME280;5175;42.606;23.388;2022-08-02T00:12:32;93674.09;;;19.07;68.68
10261;BME280;5175;42.606;23.388;2022-08-02T00:14:59;93661.78;;;18.98;70.38
10261;BME280;5175;42.606;23.388;2022-08-02T00:17:26;93669.19;;;18.89;70.50
10261;BME280;5175;42.606;23.388;2022-08-02T00:19:52;93669.22;;;19.01;68.92
10261;BME280;5175;42.606;23.388;2022-08-02T00:22:19;93659.56;;;19.00;68.44
10261;BME280;5175;42.606;23.388;2022-08-02T00:24:47;93652.91;;;18.97;68.92
10261;BME280;5175;42.606;23.388;2022-08-02T00:27:14;93635.19;;;18.67;70.04
10261;BME280;5175;42.606;23.388;2022-08-02T00:29:41;93655.19;;;18.74;70.94
10261;BME280;5175;42.606;23.388;2022-08-02T00:32:08;93660.84;;;18.61;70.46
10261;BME280;5175;42.606;23.388;2022-08-02T00:34:34;93658.75;;;18.66;71.26
10261;BME280;5175;42.606;23.388;2022-08-02T00:37:01;93647.00;;;18.62;72.14
10261;BME280;5175;42.606;23.388;2022-08-02T00:39:28;93647.84;;;18.75;71.32
10261;BME280;5175;42.606;23.388;2022-08-02T00:41:56;93649.91;;;18.57;73.17
10261;BME280;5175;42.606;23.388;2022-08-02T00:44:23;93644.75;;;18.44;73.74
10261;BME280;5175;42.606;23.388;2022-08-02T00:46:50;93645.88;;;18.43;72.92
10261;BME280;5175;42.606;23.388;2022-08-02T00:49:16;93645.94;;;18.34;71.86
10261;BME280;5175;42.606;23.388;2022-08-02T00:51:43;93647.41;;;18.52;71.29
10261;BME280;5175;42.606;23.388;2022-08-02T00:54:10;93651.97;;;18.60;70.67
10261;BME280;5175;42.606;23.388;2022-08-02T00:56:37;93648.84;;;18.70;69.36
10261;BME280;5175;42.606;23.388;2022-08-02T00:59:05;93618.94;;;18.55;70.99
10261;BME280;5175;42.606;23.388;2022-08-02T01:01:32;93646.81;;;18.67;70.98
10261;BME280;5175;42.606;23.388;2022-08-02T01:04:06;93614.56;;;18.00;73.87
10261;BME280;5175;42.606;23.388;2022-08-02T01:06:34;93640.47;;;18.22;72.85
10261;BME280;5175;42.606;23.388;2022-08-02T01:09:01;93638.28;;;18.36;71.27
10261;BME280;5175;42.606;23.388;2022-08-02T01:11:29;93641.84;;;17.78;73.89
10261;BME280;5175;42.606;23.388;2022-08-02T01:13:58;93615.59;;;17.87;74.19
10261;BME280;5175;42.606;23.388;2022-08-02T01:16:31;93642.47;;;17.84;74.93
10261;BME280;5175;42.606;23.388;2022-08-02T01:19:07;93644.88;;;18.06;73.69
10261;BME280;5175;42.606;23.388;2022-08-02T01:21:48;93640.31;;;18.19;74.32
10261;BME280;5175;42.606;23.388;2022-08-02T01:24:34;93636.16;;;18.00;74.17
10261;BME280;5175;42.606;23.388;2022-08-02T01:27:13;93637.56;;;18.06;74.89
10261;BME280;5175;42.606;23.388;2022-08-02T01:29:48;93642.75;;;17.91;75.40
10261;BME280;5175;42.606;23.388;2022-08-02T01:32:20;93642.28;;;17.89;75.82
10261;BME280;5175;42.606;23.388;2022-08-02T01:34:51;93645.56;;;17.65;75.99
10261;BME280;5175;42.606;23.388;2022-08-02T01:37:21;93633.53;;;17.63;76.79
10261;BME280;5175;42.606;23.388;2022-08-02T01:39:54;93658.00;;;17.49;77.58
10261;BME280;5175;42.606;23.388;2022-08-02T01:42:23;93643.59;;;17.45;77.86
10261;BME280;5175;42.606;23.388;2022-08-02T01:44:54;93644.56;;;17.40;78.69
10261;BME280;5175;42.606;23.388;2022-08-02T01:47:25;93634.00;;;17.18;79.02
10261;BME280;5175;42.606;23.388;2022-08-02T01:49:56;93632.78;;;17.07;78.79
10261;BME280;5175;42.606;23.388;2022-08-02T01:52:26;93639.00;;;16.99;79.96
10261;BME280;5175;42.606;23.388;2022-08-02T01:54:58;93630.44;;;16.88;80.20
10261;BME280;5175;42.606;23.388;2022-08-02T01:57:31;93627.47;;;16.81;79.91
10261;BME280;5175;42.606;23.388;2022-08-02T02:00:04;93644.25;;;16.70;80.33
10261;BME280;5175;42.606;23.388;2022-08-02T02:02:33;93639.84;;;16.57;80.38
10261;BME280;5175;42.606;23.388;2022-08-02T02:05:03;93641.28;;;16.54;80.40
10261;BME280;5175;42.606;23.388;2022-08-02T02:07:32;93640.59;;;16.49;80.56
10261;BME280;5175;42.606;23.388;2022-08-02T02:10:01;93628.25;;;16.39;80.33
10261;BME280;5175;42.606;23.388;2022-08-02T02:12:30;93640.63;;;16.32;80.21
10261;BME280;5175;42.606;23.388;2022-08-02T02:15:02;93638.72;;;16.23;80.31
10261;BME280;5175;42.606;23.388;2022-08-02T02:17:30;93647.41;;;16.20;80.33
10261;BME280;5175;42.606;23.388;2022-08-02T02:19:59;93642.06;;;16.12;79.23
10261;BME280;5175;42.606;23.388;2022-08-02T02:22:28;93640.59;;;15.97;79.15
10261;BME280;5175;42.606;23.388;2022-08-02T02:24:55;93635.34;;;15.75;78.41
10261;BME280;5175;42.606;23.388;2022-08-02T02:27:22;93638.50;;;15.69;77.29
10261;BME280;5175;42.606;23.388;2022-08-02T02:29:50;93632.78;;;15.61;77.55
10261;BME280;5175;42.606;23.388;2022-08-02T02:32:22;93642.00;;;15.78;77.93
10261;BME280;5175;42.606;23.388;2022-08-02T02:34:52;93636.06;;;15.50;75.08
10261;BME280;5175;42.606;23.388;2022-08-02T02:37:21;93647.84;;;15.71;78.34
10261;BME280;5175;42.606;23.388;2022-08-02T02:39:50;93626.66;;;15.39;76.64
10261;BME280;5175;42.606;23.388;2022-08-02T02:42:22;93649.09;;;15.65;78.49
10261;BME280;5175;42.606;23.388;2022-08-02T02:44:52;93640.50;;;15.54;79.88
10261;BME280;5175;42.606;23.388;2022-08-02T02:47:22;93621.00;;;15.40;78.79
10261;BME280;5175;42.606;23.388;2022-08-02T02:49:50;93635.34;;;15.36;76.18
10261;BME280;5175;42.606;23.388;2022-08-02T02:52:18;93643.16;;;15.46;78.52
10261;BME280;5175;42.606;23.388;2022-08-02T02:54:46;93628.94;;;15.45;78.68
10261;BME280;5175;42.606;23.388;2022-08-02T02:57:15;93582.00;;;15.12;78.09
10261;BME280;5175;42.606;23.388;2022-08-02T02:59:42;93630.28;;;15.34;76.98
10261;BME280;5175;42.606;23.388;2022-08-02T03:02:09;93640.09;;;15.39;78.54
10261;BME280;5175;42.606;23.388;2022-08-02T03:04:40;93630.22;;;15.48;78.53
10261;BME280;5175;42.606;23.388;2022-08-02T03:07:08;93623.94;;;15.70;78.37
10261;BME280;5175;42.606;23.388;2022-08-02T03:09:35;93631.56;;;15.93;80.77
10261;BME280;5175;42.606;23.388;2022-08-02T03:12:03;93638.06;;;16.18;81.56
10261;BME280;5175;42.606;23.388;2022-08-02T03:14:30;93640.47;;;16.19;82.03
10261;BME280;5175;42.606;23.388;2022-08-02T03:16:57;93639.50;;;16.15;82.08
10261;BME280;5175;42.606;23.388;2022-08-02T03:19:24;93634.13;;;16.15;81.38
10261;BME280;5175;42.606;23.388;2022-08-02T03:21:52;93642.34;;;16.10;81.83
10261;BME280;5175;42.606;23.388;2022-08-02T03:24:19;93635.88;;;16.11;81.57
10261;BME280;5175;42.606;23.388;2022-08-02T03:26:46;93646.31;;;16.13;81.78
10261;BME280;5175;42.606;23.388;2022-08-02T03:29:13;93634.75;;;16.04;81.82
10261;BME280;5175;42.606;23.388;2022-08-02T03:31:40;93572.19;;;15.64;81.86
10261;BME280;5175;42.606;23.388;2022-08-02T03:34:09;93644.69;;;15.95;81.05
10261;BME280;5175;42.606;23.388;2022-08-02T03:36:36;93650.72;;;15.92;81.20
10261;BME280;5175;42.606;23.388;2022-08-02T03:39:05;93630.00;;;15.84;80.66
10261;BME280;5175;42.606;23.388;2022-08-02T03:41:35;93572.50;;;15.45;80.03
10261;BME280;5175;42.606;23.388;2022-08-02T03:44:03;93634.13;;;16.15;81.40
10261;BME280;5175;42.606;23.388;2022-08-02T03:46:31;93636.50;;;16.34;82.17
10261;BME280;5175;42.606;23.388;2022-08-02T03:48:59;93629.38;;;16.29;82.10
10261;BME280;5175;42.606;23.388;2022-08-02T03:51:27;93640.94;;;16.30;82.24
10261;BME280;5175;42.606;23.388;2022-08-02T03:53:54;93642.69;;;16.26;81.82
10261;BME280;5175;42.606;23.388;2022-08-02T03:56:23;93646.63;;;16.28;81.97
10261;BME280;5175;42.606;23.388;2022-08-02T03:59:04;93661.84;;;16.24;81.90
10261;BME280;5175;42.606;23.388;2022-08-02T04:01:31;93663.72;;;16.15;82.08
10261;BME280;5175;42.606;23.388;2022-08-02T04:03:58;93660.56;;;16.13;82.04
10261;BME280;5175;42.606;23.388;2022-08-02T04:06:24;93671.81;;;16.15;80.88
10261;BME280;5175;42.606;23.388;2022-08-02T04:08:51;93665.97;;;16.31;82.02
10261;BME280;5175;42.606;23.388;2022-08-02T04:11:18;93669.91;;;16.07;81.53
10261;BME280;5175;42.606;23.388;2022-08-02T04:14:00;93677.22;;;16.33;81.75
10261;BME280;5175;42.606;23.388;2022-08-02T04:16:32;93678.28;;;16.06;81.06
10261;BME280;5175;42.606;23.388;2022-08-02T04:19:02;93681.00;;;16.49;82.04
10261;BME280;5175;42.606;23.388;2022-08-02T04:21:33;93680.25;;;16.74;82.26
10261;BME280;5175;42.606;23.388;2022-08-02T04:24:02;93694.97;;;16.94;82.17
10261;BME280;5175;42.606;23.388;2022-08-02T04:26:30;93685.91;;;16.98;82.14
10261;BME280;5175;42.606;23.388;2022-08-02T04:28:59;93683.03;;;17.20;81.41
10261;BME280;5175;42.606;23.388;2022-08-02T04:31:26;93683.03;;;17.20;81.80
10261;BME280;5175;42.606;23.388;2022-08-02T04:33:53;93664.34;;;17.07;81.62
10261;BME280;5175;42.606;23.388;2022-08-02T04:36:21;93681.06;;;17.38;81.05
10261;BME280;5175;42.606;23.388;2022-08-02T04:38:48;93682.09;;;17.63;81.23
10261;BME280;5175;42.606;23.388;2022-08-02T04:41:15;93681.13;;;17.67;80.74
10261;BME280;5175;42.606;23.388;2022-08-02T04:43:41;93686.63;;;17.79;80.71
10261;BME280;5175;42.606;23.388;2022-08-02T04:46:10;93671.78;;;17.94;80.28
10261;BME280;5175;42.606;23.388;2022-08-02T04:48:37;93679.03;;;18.02;79.47
10261;BME280;5175;42.606;23.388;2022-08-02T04:51:03;93673.38;;;18.15;79.83
10261;BME280;5175;42.606;23.388;2022-08-02T04:53:30;93679.53;;;18.25;80.11
10261;BME280;5175;42.606;23.388;2022-08-02T04:55:57;93684.59;;;18.26;79.83
10261;BME280;5175;42.606;23.388;2022-08-02T04:58:24;93685.16;;;18.40;79.74
10261;BME280;5175;42.606;23.388;2022-08-02T05:00:50;93681.28;;;18.50;80.10
10261;BME280;5175;42.606;23.388;2022-08-02T05:03:19;93692.50;;;18.31;81.10
10261;BME280;5175;42.606;23.388;2022-08-02T05:05:45;93668.78;;;18.16;80.90
10261;BME280;5175;42.606;23.388;2022-08-02T05:08:12;93675.13;;;18.20;80.91
10261;BME280;5175;42.606;23.388;2022-08-02T05:10:39;93688.13;;;18.47;79.97
10261;BME280;5175;42.606;23.388;2022-08-02T05:13:06;93685.50;;;18.59;79.17
10261;BME280;5175;42.606;23.388;2022-08-02T05:15:33;93699.44;;;18.41;78.64
10261;BME280;5175;42.606;23.388;2022-08-02T05:18:00;93695.59;;;18.42;79.04
10261;BME280;5175;42.606;23.388;2022-08-02T05:20:28;93698.34;;;18.83;76.86
10261;BME280;5175;42.606;23.388;2022-08-02T05:22:54;93681.38;;;18.95;75.56
10261;BME280;5175;42.606;23.388;2022-08-02T05:25:21;93693.28;;;19.14;75.43
10261;BME280;5175;42.606;23.388;2022-08-02T05:27:48;93704.66;;;19.41;74.47
10261;BME280;5175;42.606;23.388;2022-08-02T05:30:15;93705.69;;;19.48;73.57
10261;BME280;5175;42.606;23.388;2022-08-02T05:32:45;93715.84;;;19.51;74.30
10261;BME280;5175;42.606;23.388;2022-08-02T05:35:12;93714.28;;;19.62;72.88
10261;BME280;5175;42.606;23.388;2022-08-02T05:37:41;93715.66;;;19.68;72.93
10261;BME280;5175;42.606;23.388;2022-08-02T05:40:08;93723.41;;;19.70;72.88
10261;BME280;5175;42.606;23.388;2022-08-02T05:42:35;93722.09;;;19.88;73.64
10261;BME280;5175;42.606;23.388;2022-08-02T05:45:03;93717.25;;;19.93;71.98
10261;BME280;5175;42.606;23.388;2022-08-02T05:47:30;93724.81;;;20.12;72.58
10261;BME280;5175;42.606;23.388;2022-08-02T05:49:56;93730.91;;;20.21;71.99
10261;BME280;5175;42.606;23.388;2022-08-02T05:52:25;93724.28;;;20.43;69.80
10261;BME280;5175;42.606;23.388;2022-08-02T05:55:03;93733.63;;;20.45;68.54
10261;BME280;5175;42.606;23.388;2022-08-02T05:57:36;93672.56;;;20.24;67.66
10261;BME280;5175;42.606;23.388;2022-08-02T06:00:07;93712.72;;;20.58;67.12
10261;BME280;5175;42.606;23.388;2022-08-02T06:02:43;93740.25;;;20.84;66.91
10261;BME280;5175;42.606;23.388;2022-08-02T06:05:15;93734.63;;;21.05;64.14
10261;BME280;5175;42.606;23.388;2022-08-02T06:07:43;93746.81;;;21.23;63.51
10261;BME280;5175;42.606;23.388;2022-08-02T06:10:13;93746.22;;;21.30;63.83
10261;BME280;5175;42.606;23.388;2022-08-02T06:12:49;93739.69;;;21.46;61.61
10261;BME280;5175;42.606;23.388;2022-08-02T06:15:17;93725.84;;;21.36;62.26
10261;BME280;5175;42.606;23.388;2022-08-02T06:17:45;93745.72;;;21.40;60.19
10261;BME280;5175;42.606;23.388;2022-08-02T06:20:13;93695.19;;;21.35;60.27
10261;BME280;5175;42.606;23.388;2022-08-02T06:22:42;93750.00;;;21.84;58.68
10261;BME280;5175;42.606;23.388;2022-08-02T06:25:09;93744.47;;;21.80;55.73
10261;BME280;5175;42.606;23.388;2022-08-02T06:27:39;93750.75;;;22.12;53.79
10261;BME280;5175;42.606;23.388;2022-08-02T06:48:05;93751.03;;;22.58;49.83
10261;BME280;5175;42.606;23.388;2022-08-02T06:50:32;93763.94;;;22.61;49.71
10261;BME280;5175;42.606;23.388;2022-08-02T06:52:59;93751.13;;;22.77;50.89
10261;BME280;5175;42.606;23.388;2022-08-02T06:55:26;93744.72;;;22.85;50.35
10261;BME280;5175;42.606;23.388;2022-08-02T06:57:54;93760.13;;;22.96;49.90
10261;BME280;5175;42.606;23.388;2022-08-02T07:00:20;93753.59;;;22.82;48.99
10261;BME280;5175;42.606;23.388;2022-08-02T07:02:48;93760.69;;;22.55;50.39
10261;BME280;5175;42.606;23.388;2022-08-02T07:05:16;93752.47;;;22.52;51.63
10261;BME280;5175;42.606;23.388;2022-08-02T07:07:43;93683.50;;;22.25;50.48
10261;BME280;5175;42.606;23.388;2022-08-02T07:10:11;93742.03;;;22.69;50.12
10261;BME280;5175;42.606;23.388;2022-08-02T07:12:38;93741.91;;;22.81;50.24
10261;BME280;5175;42.606;23.388;2022-08-02T07:15:06;93751.94;;;22.96;50.86
10261;BME280;5175;42.606;23.388;2022-08-02T07:17:34;93757.72;;;22.76;50.45
10261;BME280;5175;42.606;23.388;2022-08-02T07:20:02;93755.34;;;22.59;52.14
10261;BME280;5175;42.606;23.388;2022-08-02T07:22:30;93759.06;;;22.51;51.56
10261;BME280;5175;42.606;23.388;2022-08-02T07:24:59;93748.94;;;22.82;51.63
10261;BME280;5175;42.606;23.388;2022-08-02T07:27:27;93762.63;;;23.05;51.39
10261;BME280;5175;42.606;23.388;2022-08-02T07:29:54;93756.84;;;23.26;49.72
10261;BME280;5175;42.606;23.388;2022-08-02T07:32:23;93748.56;;;23.57;49.91
10261;BME280;5175;42.606;23.388;2022-08-02T07:34:51;93754.34;;;23.75;49.22
10261;BME280;5175;42.606;23.388;2022-08-02T07:37:20;93705.31;;;23.55;48.43
10261;BME280;5175;42.606;23.388;2022-08-02T07:39:48;93760.59;;;23.75;48.21
10261;BME280;5175;42.606;23.388;2022-08-02T07:42:15;93759.50;;;24.02;48.20
10261;BME280;5175;42.606;23.388;2022-08-02T07:44:42;93759.66;;;24.09;48.78
10261;BME280;5175;42.606;23.388;2022-08-02T07:47:08;93768.00;;;23.97;47.72
10261;BME280;5175;42.606;23.388;2022-08-02T07:49:35;93765.50;;;24.08;48.46
10261;BME280;5175;42.606;23.388;2022-08-02T07:52:03;93764.44;;;23.93;49.30
10261;BME280;5175;42.606;23.388;2022-08-02T07:54:30;93765.25;;;23.55;50.57
10261;BME280;5175;42.606;23.388;2022-08-02T07:56:58;93745.78;;;23.76;48.95
10261;BME280;5175;42.606;23.388;2022-08-02T07:59:25;93764.34;;;23.90;48.82
10261;BME280;5175;42.606;23.388;2022-08-02T08:01:52;93764.75;;;24.11;48.56
10261;BME280;5175;42.606;23.388;2022-08-02T08:04:20;93764.44;;;24.39;46.91
10261;BME280;5175;42.606;23.388;2022-08-02T08:06:47;93764.34;;;24.58;46.67
10261;BME280;5175;42.606;23.388;2022-08-02T08:09:16;93754.69;;;24.15;47.68
10261;BME280;5175;42.606;23.388;2022-08-02T08:11:43;93766.50;;;23.81;47.88
10261;BME280;5175;42.606;23.388;2022-08-02T08:14:11;93765.50;;;24.08;48.53
10261;BME280;5175;42.606;23.388;2022-08-02T08:16:38;93766.38;;;24.38;46.64
10261;BME280;5175;42.606;23.388;2022-08-02T08:19:05;93764.03;;;24.63;45.89
10261;BME280;5175;42.606;23.388;2022-08-02T08:21:32;93766.88;;;24.93;46.07
10261;BME280;5175;42.606;23.388;2022-08-02T08:24:00;93776.34;;;25.28;45.38
10261;BME280;5175;42.606;23.388;2022-08-02T08:26:28;93764.88;;;25.45;44.13
10261;BME280;5175;42.606;23.388;2022-08-02T08:28:55;93772.88;;;25.61;43.87
10261;BME280;5175;42.606;23.388;2022-08-02T08:31:23;93768.72;;;25.74;45.76
10261;BME280;5175;42.606;23.388;2022-08-02T08:33:50;93773.97;;;25.90;43.44
10261;BME280;5175;42.606;23.388;2022-08-02T08:36:17;93772.47;;;25.96;42.96
10261;BME280;5175;42.606;23.388;2022-08-02T08:38:45;93766.63;;;25.97;42.63
10261;BME280;5175;42.606;23.388;2022-08-02T08:41:14;93771.91;;;26.13;43.63
10261;BME280;5175;42.606;23.388;2022-08-02T08:43:41;93771.38;;;26.04;42.30
10261;BME280;5175;42.606;23.388;2022-08-02T08:46:10;93763.31;;;26.15;42.11
10261;BME280;5175;42.606;23.388;2022-08-02T08:48:42;93768.06;;;26.21;41.25
10261;BME280;5175;42.606;23.388;2022-08-02T08:51:15;93769.97;;;26.17;43.04
10261;BME280;5175;42.606;23.388;2022-08-02T08:53:47;93763.06;;;26.30;42.55
10261;BME280;5175;42.606;23.388;2022-08-02T08:56:15;93766.63;;;26.34;42.70
10261;BME280;5175;42.606;23.388;2022-08-02T08:58:42;93760.41;;;26.37;42.17
10261;BME280;5175;42.606;23.388;2022-08-02T09:01:11;93783.22;;;26.55;41.05
10261;BME280;5175;42.606;23.388;2022-08-02T09:03:39;93772.44;;;26.73;41.65
10261;BME280;5175;42.606;23.388;2022-08-02T09:06:06;93770.19;;;26.86;40.48
10261;BME280;5175;42.606;23.388;2022-08-02T09:08:33;93770.91;;;26.79;40.52
10261;BME280;5175;42.606;23.388;2022-08-02T09:11:00;93779.25;;;26.97;39.19
10261;BME280;5175;42.606;23.388;2022-08-02T09:13:28;93762.88;;;27.04;39.04
10261;BME280;5175;42.606;23.388;2022-08-02T09:15:57;93776.72;;;26.74;38.62
10261;BME280;5175;42.606;23.388;2022-08-02T09:18:31;93767.00;;;26.77;38.98
10261;BME280;5175;42.606;23.388;2022-08-02T09:21:01;93774.09;;;26.85;39.89
10261;BME280;5175;42.606;23.388;2022-08-02T09:23:33;93760.91;;;26.53;39.83
10261;BME280;5175;42.606;23.388;2022-08-02T09:26:02;93773.09;;;26.16;39.96
10261;BME280;5175;42.606;23.388;2022-08-02T09:28:30;93771.16;;;25.83;41.08
10261;BME280;5175;42.606;23.388;2022-08-02T09:31:03;93766.16;;;25.88;41.41
10261;BME280;5175;42.606;23.388;2022-08-02T09:33:31;93766.84;;;26.15;41.31
10261;BME280;5175;42.606;23.388;2022-08-02T09:36:01;93764.59;;;26.28;41.14
10261;BME280;5175;42.606;23.388;2022-08-02T09:38:28;93755.84;;;26.11;41.09
10261;BME280;5175;42.606;23.388;2022-08-02T09:40:56;93749.84;;;25.62;43.07
10261;BME280;5175;42.606;23.388;2022-08-02T09:43:34;93761.22;;;26.04;42.22
10261;BME280;5175;42.606;23.388;2022-08-02T09:46:12;93765.94;;;26.48;42.21
10261;BME280;5175;42.606;23.388;2022-08-02T09:48:50;93767.38;;;25.94;41.15
10261;BME280;5175;42.606;23.388;2022-08-02T09:51:21;93756.06;;;25.96;41.54
10261;BME280;5175;42.606;23.388;2022-08-02T09:53:49;93758.03;;;26.36;40.61
10261;BME280;5175;42.606;23.388;2022-08-02T09:56:17;93748.22;;;26.79;40.47
10261;BME280;5175;42.606;23.388;2022-08-02T09:58:45;93743.34;;;27.12;39.82
10261;BME280;5175;42.606;23.388;2022-08-02T10:01:13;93744.66;;;27.36;40.75
10261;BME280;5175;42.606;23.388;2022-08-02T10:03:58;93740.09;;;27.61;41.00
10261;BME280;5175;42.606;23.388;2022-08-02T10:06:27;93748.03;;;27.91;39.74
10261;BME280;5175;42.606;23.388;2022-08-02T10:08:54;93750.75;;;27.94;38.18
10261;BME280;5175;42.606;23.388;2022-08-02T10:11:21;93745.75;;;28.28;38.11
10261;BME280;5175;42.606;23.388;2022-08-02T10:13:49;93747.66;;;27.96;38.06
10261;BME280;5175;42.606;23.388;2022-08-02T10:16:16;93758.72;;;28.35;38.59
10261;BME280;5175;42.606;23.388;2022-08-02T10:18:47;93761.84;;;28.33;37.03
10261;BME280;5175;42.606;23.388;2022-08-02T10:21:19;93753.22;;;28.38;37.27
10261;BME280;5175;42.606;23.388;2022-08-02T10:23:51;93754.44;;;28.69;37.67
10261;BME280;5175;42.606;23.388;2022-08-02T10:26:19;93734.38;;;28.16;37.70
10261;BME280;5175;42.606;23.388;2022-08-02T10:28:47;93744.97;;;28.45;36.59
10261;BME280;5175;42.606;23.388;2022-08-02T10:31:19;93755.97;;;28.35;37.87
10261;BME280;5175;42.606;23.388;2022-08-02T10:33:47;93744.16;;;28.13;39.71
10261;BME280;5175;42.606;23.388;2022-08-02T10:36:18;93744.97;;;28.45;38.08
10261;BME280;5175;42.606;23.388;2022-08-02T10:38:45;93743.84;;;28.78;39.69
10261;BME280;5175;42.606;23.388;2022-08-02T10:41:14;93746.59;;;28.89;39.70
10261;BME280;5175;42.606;23.388;2022-08-02T10:43:46;93745.03;;;28.81;36.25
10261;BME280;5175;42.606;23.388;2022-08-02T10:46:29;93742.63;;;28.37;37.14
10261;BME280;5175;42.606;23.388;2022-08-02T10:49:02;93742.59;;;28.12;37.61
10261;BME280;5175;42.606;23.388;2022-08-02T10:51:56;93745.75;;;28.21;37.33
10261;BME280;5175;42.606;23.388;2022-08-02T10:54:24;93732.81;;;28.36;37.98
10261;BME280;5175;42.606;23.388;2022-08-02T10:56:55;93744.19;;;28.17;39.10
10261;BME280;5175;42.606;23.388;2022-08-02T10:59:24;93743.00;;;28.11;38.60
10261;BME280;5175;42.606;23.388;2022-08-02T11:01:51;93736.31;;;28.05;38.32
10261;BME280;5175;42.606;23.388;2022-08-02T11:04:27;93732.38;;;28.02;38.43
10261;BME280;5175;42.606;23.388;2022-08-02T11:07:09;93741.88;;;28.40;37.94
10261;BME280;5175;42.606;23.388;2022-08-02T11:09:38;93739.50;;;28.95;38.14
10261;BME280;5175;42.606;23.388;2022-08-02T11:12:08;93745.34;;;29.25;38.91
10261;BME280;5175;42.606;23.388;2022-08-02T11:14:36;93745.25;;;29.53;36.39
10261;BME280;5175;42.606;23.388;2022-08-02T11:17:11;93740.13;;;29.59;37.62
10261;BME280;5175;42.606;23.388;2022-08-02T11:20:15;93744.94;;;29.30;36.42
10261;BME280;5175;42.606;23.388;2022-08-02T11:22:44;93732.47;;;28.69;37.60
10261;BME280;5175;42.606;23.388;2022-08-02T11:25:33;93738.63;;;29.47;36.82
10261;BME280;5175;42.606;23.388;2022-08-02T11:28:10;93730.31;;;29.58;36.53
10261;BME280;5175;42.606;23.388;2022-08-02T11:30:37;93730.41;;;29.40;40.38
10261;BME280;5175;42.606;23.388;2022-08-02T11:33:04;93735.50;;;29.28;38.27
10261;BME280;5175;42.606;23.388;2022-08-02T11:35:33;93733.03;;;29.68;38.01
10261;BME280;5175;42.606;23.388;2022-08-02T11:38:15;93728.63;;;29.89;37.59
10261;BME280;5175;42.606;23.388;2022-08-02T11:40:43;93730.31;;;29.54;38.89
10261;BME280;5175;42.606;23.388;2022-08-02T11:43:19;93735.53;;;29.21;39.21
10261;BME280;5175;42.606;23.388;2022-08-02T11:45:46;93741.06;;;29.03;37.85
10261;BME280;5175;42.606;23.388;2022-08-02T11:48:13;93722.28;;;28.73;38.45
10261;BME280;5175;42.606;23.388;2022-08-02T11:50:40;93723.03;;;28.49;40.43
10261;BME280;5175;42.606;23.388;2022-08-02T11:53:14;93731.25;;;28.28;41.03
10261;BME280;5175;42.606;23.388;2022-08-02T11:55:41;93726.94;;;28.27;38.48
10261;BME280;5175;42.606;23.388;2022-08-02T11:58:08;93724.56;;;28.15;38.29
10261;BME280;5175;42.606;23.388;2022-08-02T12:00:37;93732.75;;;27.93;38.27
10261;BME280;5175;42.606;23.388;2022-08-02T12:03:06;93732.28;;;27.70;39.70
10261;BME280;5175;42.606;23.388;2022-08-02T12:05:33;93727.63;;;27.78;40.18
10261;BME280;5175;42.606;23.388;2022-08-02T12:08:05;93729.69;;;28.34;40.05
10261;BME280;5175;42.606;23.388;2022-08-02T12:10:32;93721.88;;;28.78;38.68
10261;BME280;5175;42.606;23.388;2022-08-02T12:12:59;93726.13;;;29.07;39.74
10261;BME280;5175;42.606;23.388;2022-08-02T12:15:31;93717.88;;;29.11;39.59
10261;BME280;5175;42.606;23.388;2022-08-02T12:18:01;93718.91;;;29.59;41.66
10261;BME280;5175;42.606;23.388;2022-08-02T12:20:46;93739.28;;;29.69;36.90
10261;BME280;5175;42.606;23.388;2022-08-02T12:23:13;93734.16;;;29.74;38.71
10261;BME280;5175;42.606;23.388;2022-08-02T12:25:40;93741.59;;;29.85;36.38
10261;BME280;5175;42.606;23.388;2022-08-02T12:28:15;93729.53;;;29.57;37.81
10261;BME280;5175;42.606;23.388;2022-08-02T12:30:50;93733.97;;;29.20;37.51
10261;BME280;5175;42.606;23.388;2022-08-02T12:33:20;93732.38;;;29.15;37.57
10261;BME280;5175;42.606;23.388;2022-08-02T12:35:47;93633.19;;;28.78;36.08
10261;BME280;5175;42.606;23.388;2022-08-02T12:38:14;93720.88;;;29.62;36.65
10261;BME280;5175;42.606;23.388;2022-08-02T12:40:41;93733.78;;;29.69;35.25
10261;BME280;5175;42.606;23.388;2022-08-02T12:43:16;93732.06;;;30.07;37.03
10261;BME280;5175;42.606;23.388;2022-08-02T12:45:48;93738.19;;;30.32;34.26
10261;BME280;5175;42.606;23.388;2022-08-02T12:48:16;93729.94;;;30.28;34.64
10261;BME280;5175;42.606;23.388;2022-08-02T12:50:44;93720.09;;;30.82;34.79
10261;BME280;5175;42.606;23.388;2022-08-02T12:53:12;93729.91;;;30.90;34.24
10261;BME280;5175;42.606;23.388;2022-08-02T12:55:48;93732.03;;;31.13;34.34
10261;BME280;5175;42.606;23.388;2022-08-02T12:58:15;93726.88;;;31.19;35.16
10261;BME280;5175;42.606;23.388;2022-08-02T13:00:42;93723.91;;;30.99;35.22
10261;BME280;5175;42.606;23.388;2022-08-02T13:03:11;93712.53;;;30.90;36.53
10261;BME280;5175;42.606;23.388;2022-08-02T13:05:37;93703.63;;;31.20;34.77
10261;BME280;5175;42.606;23.388;2022-08-02T13:08:05;93710.19;;;31.33;38.12
10261;BME280;5175;42.606;23.388;2022-08-02T13:10:32;93715.91;;;31.49;34.58
10261;BME280;5175;42.606;23.388;2022-08-02T13:12:59;93719.09;;;31.44;34.50
10261;BME280;5175;42.606;23.388;2022-08-02T13:15:27;93726.19;;;31.08;35.82
10261;BME280;5175;42.606;23.388;2022-08-02T13:17:54;93713.50;;;31.17;36.24
10261;BME280;5175;42.606;23.388;2022-08-02T13:20:23;93709.78;;;30.97;34.58
10261;BME280;5175;42.606;23.388;2022-08-02T13:22:51;93696.91;;;31.21;37.47
10261;BME280;5175;42.606;23.388;2022-08-02T13:25:20;93717.41;;;31.57;33.76
10261;BME280;5175;42.606;23.388;2022-08-02T13:27:47;93720.03;;;31.68;33.53